sensor_id;sensor_type;location;lat;lon;timestamp;pressure;altitude;pressure_sealevel;temperature;humidity
60345;BME280;46188;52.324;8.032;2023-02-15T00:01:50;101829.97;;;2.40;100.00
60345;BME280;46188;52.324;8.032;2023-02-15T00:04:18;101831.94;;;2.44;100.00
60345;BME280;46188;52.324;8.032;2023-02-15T00:06:44;101830.22;;;2.45;100.00
60345;BME280;46188;52.324;8.032;2023-02-15T00:09:09;101823.94;;;2.41;100.00
60345;BME280;46188;52.324;8.032;2023-02-15T00:11:35;101821.22;;;2.39;100.00
60345;BME280;46188;52.324;8.032;2023-02-15T00:14:20;101822.84;;;2.51;100.00
60345;BME280;46188;52.324;8.032;2023-02-15T00:16:46;101822.06;;;2.52;100.00
60345;BME280;46188;52.324;8.032;2023-02-15T00:19:13;101823.94;;;2.54;100.00
60345;BME280;46188;52.324;8.032;2023-02-15T00:21:39;101817.72;;;2.52;100.00
60345;BME280;46188;52.324;8.032;2023-02-15T00:24:07;101817.13;;;2.43;100.00
60345;BME280;46188;52.324;8.032;2023-02-15T00:26:34;101818.41;;;2.36;100.00
60345;BME280;46188;52.324;8.032;2023-02-15T00:29:00;101814.81;;;2.34;100.00
60345;BME280;46188;52.324;8.032;2023-02-15T00:31:27;101813.31;;;2.25;100.00
60345;BME280;46188;52.324;8.032;2023-02-15T00:33:53;101813.31;;;2.25;100.00
60345;BME280;46188;52.324;8.032;2023-02-15T00:36:19;101820.75;;;2.32;100.00
60345;BME280;46188;52.324;8.032;2023-02-15T00:38:45;101813.94;;;2.34;100.00
60345;BME280;46188;52.324;8.032;2023-02-15T00:41:10;101817.94;;;2.29;100.00
60345;BME280;46188;52.324;8.032;2023-02-15T00:43:36;101812.72;;;2.29;100.00
60345;BME280;46188;52.324;8.032;2023-02-15T00:46:02;101813.72;;;2.31;100.00
60345;BME280;46188;52.324;8.032;2023-02-15T00:48:28;101803.53;;;2.34;100.00
60345;BME280;46188;52.324;8.032;2023-02-15T00:50:56;101803.31;;;2.31;100.00
60345;BME280;46188;52.324;8.032;2023-02-15T00:53:23;101805.13;;;2.32;100.00
60345;BME280;46188;52.324;8.032;2023-02-15T00:55:48;101797.22;;;2.17;100.00
60345;BME280;46188;52.324;8.032;2023-02-15T00:58:14;101800.09;;;2.21;100.00
60345;BME280;46188;52.324;8.032;2023-02-15T01:00:43;101798.78;;;2.15;100.00
60345;BME280;46188;52.324;8.032;2023-02-15T01:03:10;101789.31;;;2.15;100.00
60345;BME280;46188;52.324;8.032;2023-02-15T01:05:36;101795.09;;;2.11;100.00
60345;BME280;46188;52.324;8.032;2023-02-15T01:08:02;101791.38;;;2.08;100.00
60345;BME280;46188;52.324;8.032;2023-02-15T01:10:27;101784.47;;;2.08;100.00
60345;BME280;46188;52.324;8.032;2023-02-15T01:12:53;101778.47;;;1.96;100.00
60345;BME280;46188;52.324;8.032;2023-02-15T01:15:19;101777.16;;;1.89;100.00
60345;BME280;46188;52.324;8.032;2023-02-15T01:17:44;101779.25;;;1.81;100.00
60345;BME280;46188;52.324;8.032;2023-02-15T01:20:17;101772.03;;;1.77;100.00
60345;BME280;46188;52.324;8.032;2023-02-15T01:22:42;101776.53;;;1.80;100.00
60345;BME280;46188;52.324;8.032;2023-02-15T01:25:08;101777.06;;;1.88;100.00
60345;BME280;46188;52.324;8.032;2023-02-15T01:27:33;101774.66;;;1.91;100.00
60345;BME280;46188;52.324;8.032;2023-02-15T01:29:59;101774.56;;;1.89;100.00
60345;BME280;46188;52.324;8.032;2023-02-15T01:32:24;101771.03;;;1.89;100.00
60345;BME280;46188;52.324;8.032;2023-02-15T01:34:50;101764.06;;;1.88;100.00
60345;BME280;46188;52.324;8.032;2023-02-15T01:37:15;101765.38;;;1.94;100.00
60345;BME280;46188;52.324;8.032;2023-02-15T01:39:40;101769.16;;;1.99;100.00
60345;BME280;46188;52.324;8.032;2023-02-15T01:42:10;101760.28;;;1.96;100.00
60345;BME280;46188;52.324;8.032;2023-02-15T01:48:05;101762.88;;;1.96;100.00
60345;BME280;46188;52.324;8.032;2023-02-15T01:50:11;101763.34;;;1.90;100.00
60345;BME280;46188;52.324;8.032;2023-02-15T01:52:41;101763.25;;;1.89;100.00
60345;BME280;46188;52.324;8.032;2023-02-15T01:55:08;101757.56;;;1.94;100.00
60345;BME280;46188;52.324;8.032;2023-02-15T01:57:34;101754.44;;;1.87;100.00
60345;BME280;46188;52.324;8.032;2023-02-15T02:00:02;101751.34;;;1.79;100.00
60345;BME280;46188;52.324;8.032;2023-02-15T02:02:29;101749.22;;;1.73;100.00
60345;BME280;46188;52.324;8.032;2023-02-15T02:04:59;101743.44;;;1.64;100.00
60345;BME280;46188;52.324;8.032;2023-02-15T02:07:27;101736.19;;;1.60;100.00
60345;BME280;46188;52.324;8.032;2023-02-15T02:09:54;101725.28;;;1.52;100.00
60345;BME280;46188;52.324;8.032;2023-02-15T02:12:21;101730.81;;;1.32;100.00
60345;BME280;46188;52.324;8.032;2023-02-15T02:14:49;101717.44;;;1.39;100.00
60345;BME280;46188;52.324;8.032;2023-02-15T02:17:21;101720.25;;;1.42;100.00
60345;BME280;46188;52.324;8.032;2023-02-15T02:31:47;101701.72;;;1.49;100.00
60345;BME280;46188;52.324;8.032;2023-02-15T02:34:26;101706.69;;;1.46;100.00
60345;BME280;46188;52.324;8.032;2023-02-15T02:37:16;101712.69;;;1.58;100.00
60345;BME280;46188;52.324;8.032;2023-02-15T02:40:01;101705.50;;;1.54;100.00
60345;BME280;46188;52.324;8.032;2023-02-15T02:42:54;101704.81;;;1.70;100.00
60345;BME280;46188;52.324;8.032;2023-02-15T02:45:25;101702.19;;;1.57;100.00
60345;BME280;46188;52.324;8.032;2023-02-15T02:47:55;101709.56;;;1.51;100.00
60345;BME280;46188;52.324;8.032;2023-02-15T02:50:26;101704.13;;;1.59;100.00
60345;BME280;46188;52.324;8.032;2023-02-15T02:52:55;101708.81;;;1.65;100.00
60345;BME280;46188;52.324;8.032;2023-02-15T02:55:31;101707.91;;;1.64;100.00
60345;BME280;46188;52.324;8.032;2023-02-15T03:00:31;101705.00;;;1.60;100.00
60345;BME280;46188;52.324;8.032;2023-02-15T03:03:06;101707.31;;;1.69;100.00
60345;BME280;46188;52.324;8.032;2023-02-15T03:05:35;101711.22;;;1.75;100.00
60345;BME280;46188;52.324;8.032;2023-02-15T03:08:04;101713.03;;;1.76;100.00
60345;BME280;46188;52.324;8.032;2023-02-15T03:10:31;101712.03;;;1.74;100.00
60345;BME280;46188;52.324;8.032;2023-02-15T03:12:59;101713.22;;;1.66;100.00
60345;BME280;46188;52.324;8.032;2023-02-15T03:15:38;101710.50;;;1.51;100.00
60345;BME280;46188;52.324;8.032;2023-02-15T03:18:26;101713.47;;;1.44;100.00
60345;BME280;46188;52.324;8.032;2023-02-15T03:20:54;101691.84;;;1.32;100.00
60345;BME280;46188;52.324;8.032;2023-02-15T03:23:23;101685.56;;;1.28;100.00
60345;BME280;46188;52.324;8.032;2023-02-15T03:25:59;101681.94;;;1.13;100.00
60345;BME280;46188;52.324;8.032;2023-02-15T03:28:29;101679.31;;;1.13;100.00
60345;BME280;46188;52.324;8.032;2023-02-15T03:31:00;101680.03;;;1.23;100.00
60345;BME280;46188;52.324;8.032;2023-02-15T03:33:27;101676.56;;;1.23;100.00
60345;BME280;46188;52.324;8.032;2023-02-15T03:39:10;101675.25;;;1.16;100.00
60345;BME280;46188;52.324;8.032;2023-02-15T03:41:17;101674.75;;;1.22;100.00
60345;BME280;46188;52.324;8.032;2023-02-15T03:43:58;101670.31;;;1.21;100.00
60345;BME280;46188;52.324;8.032;2023-02-15T03:49:48;101673.31;;;1.14;100.00
60345;BME280;46188;52.324;8.032;2023-02-15T03:52:07;101670.78;;;1.02;100.00
60345;BME280;46188;52.324;8.032;2023-02-15T03:54:34;101668.78;;;0.98;100.00
60345;BME280;46188;52.324;8.032;2023-02-15T03:57:19;101670.56;;;0.99;100.00
60345;BME280;46188;52.324;8.032;2023-02-15T04:00:18;101669.34;;;0.94;100.00
60345;BME280;46188;52.324;8.032;2023-02-15T04:05:41;101662.28;;;0.79;100.00
60345;BME280;46188;52.324;8.032;2023-02-15T04:08:07;101676.59;;;0.86;100.00
60345;BME280;46188;52.324;8.032;2023-02-15T04:10:33;101677.34;;;0.97;100.00
60345;BME280;46188;52.324;8.032;2023-02-15T04:13:18;101658.91;;;1.05;100.00
60345;BME280;46188;52.324;8.032;2023-02-15T04:15:43;101673.28;;;1.00;100.00
60345;BME280;46188;52.324;8.032;2023-02-15T04:18:27;101669.03;;;0.89;100.00
60345;BME280;46188;52.324;8.032;2023-02-15T04:21:11;101670.41;;;0.84;100.00
60345;BME280;46188;52.324;8.032;2023-02-15T04:23:54;101668.31;;;0.78;100.00
60345;BME280;46188;52.324;8.032;2023-02-15T04:26:38;101668.09;;;0.75;100.00
60345;BME280;46188;52.324;8.032;2023-02-15T04:29:04;101667.75;;;0.70;100.00
60345;BME280;46188;52.324;8.032;2023-02-15T04:31:29;101664.59;;;0.75;100.00
60345;BME280;46188;52.324;8.032;2023-02-15T04:33:54;101662.66;;;0.72;100.00
60345;BME280;46188;52.324;8.032;2023-02-15T04:36:20;101663.34;;;0.69;100.00
60345;BME280;46188;52.324;8.032;2023-02-15T04:38:45;101657.63;;;0.62;100.00
60345;BME280;46188;52.324;8.032;2023-02-15T04:41:10;101648.09;;;0.74;100.00
60345;BME280;46188;52.324;8.032;2023-02-15T04:43:38;101654.72;;;0.82;100.00
60345;BME280;46188;52.324;8.032;2023-02-15T04:46:03;101654.72;;;0.82;100.00
60345;BME280;46188;52.324;8.032;2023-02-15T04:48:29;101654.28;;;0.88;100.00
60345;BME280;46188;52.324;8.032;2023-02-15T04:50:55;101658.66;;;0.89;100.00
60345;BME280;46188;52.324;8.032;2023-02-15T04:53:20;101661.19;;;0.76;100.00
60345;BME280;46188;52.324;8.032;2023-02-15T04:55:46;101655.94;;;0.87;100.00
60345;BME280;46188;52.324;8.032;2023-02-15T04:58:11;101654.38;;;0.89;100.00
60345;BME280;46188;52.324;8.032;2023-02-15T05:00:36;101649.47;;;0.94;100.00
60345;BME280;46188;52.324;8.032;2023-02-15T05:03:02;101649.59;;;0.96;100.00
60345;BME280;46188;52.324;8.032;2023-02-15T05:05:28;101646.78;;;0.92;100.00
60345;BME280;46188;52.324;8.032;2023-02-15T05:07:53;101651.56;;;0.86;100.00
60345;BME280;46188;52.324;8.032;2023-02-15T05:10:19;101648.97;;;0.86;100.00
60345;BME280;46188;52.324;8.032;2023-02-15T05:12:44;101651.63;;;0.75;100.00
60345;BME280;46188;52.324;8.032;2023-02-15T05:15:10;101647.22;;;0.73;100.00
60345;BME280;46188;52.324;8.032;2023-02-15T05:17:36;101641.13;;;0.73;100.00
60345;BME280;46188;52.324;8.032;2023-02-15T05:20:02;101650.63;;;0.61;100.00
60345;BME280;46188;52.324;8.032;2023-02-15T05:22:28;101640.16;;;0.59;100.00
60345;BME280;46188;52.324;8.032;2023-02-15T05:24:53;101637.94;;;0.52;100.00
60345;BME280;46188;52.324;8.032;2023-02-15T05:27:38;101643.69;;;0.48;100.00
60345;BME280;46188;52.324;8.032;2023-02-15T05:30:21;101643.50;;;0.45;100.00
60345;BME280;46188;52.324;8.032;2023-02-15T05:32:47;101633.78;;;0.42;100.00
60345;BME280;46188;52.324;8.032;2023-02-15T05:35:14;101636.03;;;0.38;100.00
60345;BME280;46188;52.324;8.032;2023-02-15T05:37:40;101627.94;;;0.45;100.00
60345;BME280;46188;52.324;8.032;2023-02-15T05:40:06;101625.88;;;0.41;100.00
60345;BME280;46188;52.324;8.032;2023-02-15T05:42:32;101625.22;;;0.31;100.00
60345;BME280;46188;52.324;8.032;2023-02-15T05:44:57;101621.19;;;0.23;100.00
60345;BME280;46188;52.324;8.032;2023-02-15T05:47:23;101624.38;;;0.19;100.00
60345;BME280;46188;52.324;8.032;2023-02-15T05:49:48;101623.03;;;0.12;100.00
60345;BME280;46188;52.324;8.032;2023-02-15T05:52:14;101613.09;;;0.18;100.00
60345;BME280;46188;52.324;8.032;2023-02-15T05:54:39;101625.97;;;0.17;100.00
60345;BME280;46188;52.324;8.032;2023-02-15T05:57:04;101618.41;;;0.20;100.00
60345;BME280;46188;52.324;8.032;2023-02-15T05:59:30;101605.56;;;0.22;100.00
60345;BME280;46188;52.324;8.032;2023-02-15T06:01:55;101612.28;;;0.20;100.00
60345;BME280;46188;52.324;8.032;2023-02-15T06:04:21;101610.81;;;0.23;100.00
60345;BME280;46188;52.324;8.032;2023-02-15T06:06:46;101608.56;;;0.28;100.00
60345;BME280;46188;52.324;8.032;2023-02-15T06:09:12;101605.19;;;0.29;100.00
60345;BME280;46188;52.324;8.032;2023-02-15T06:11:38;101614.78;;;0.30;100.00
60345;BME280;46188;52.324;8.032;2023-02-15T06:14:03;101616.44;;;0.29;100.00
60345;BME280;46188;52.324;8.032;2023-02-15T06:16:29;101614.06;;;0.32;100.00
60345;BME280;46188;52.324;8.032;2023-02-15T06:18:54;101609.09;;;0.35;100.00
60345;BME280;46188;52.324;8.032;2023-02-15T06:21:19;101610.91;;;0.36;100.00
60345;BME280;46188;52.324;8.032;2023-02-15T06:23:45;101608.78;;;0.31;100.00
60345;BME280;46188;52.324;8.032;2023-02-15T06:26:10;101612.41;;;0.21;100.00
60345;BME280;46188;52.324;8.032;2023-02-15T06:28:36;101612.84;;;0.27;100.00
60345;BME280;46188;52.324;8.032;2023-02-15T06:31:03;101614.44;;;0.25;100.00
60345;BME280;46188;52.324;8.032;2023-02-15T06:33:28;101611.63;;;0.22;100.00
60345;BME280;46188;52.324;8.032;2023-02-15T06:35:56;101616.22;;;0.26;100.00
60345;BME280;46188;52.324;8.032;2023-02-15T06:38:21;101622.66;;;0.20;100.00
60345;BME280;46188;52.324;8.032;2023-02-15T06:40:47;101617.97;;;0.14;100.00
60345;BME280;46188;52.324;8.032;2023-02-15T06:43:12;101618.63;;;0.11;100.00
60345;BME280;46188;52.324;8.032;2023-02-15T06:45:38;101629.66;;;0.21;100.00
60345;BME280;46188;52.324;8.032;2023-02-15T06:48:04;101623.59;;;0.20;100.00
60345;BME280;46188;52.324;8.032;2023-02-15T06:50:32;101622.34;;;0.27;100.00
60345;BME280;46188;52.324;8.032;2023-02-15T06:52:58;101615.56;;;0.29;100.00
60345;BME280;46188;52.324;8.032;2023-02-15T06:55:24;101620.16;;;0.33;100.00
60345;BME280;46188;52.324;8.032;2023-02-15T06:57:49;101616.88;;;0.35;100.00
60345;BME280;46188;52.324;8.032;2023-02-15T07:00:15;101614.84;;;0.31;100.00
60345;BME280;46188;52.324;8.032;2023-02-15T07:02:40;101615.50;;;0.41;100.00
60345;BME280;46188;52.324;8.032;2023-02-15T07:05:06;101609.75;;;0.45;100.00
60345;BME280;46188;52.324;8.032;2023-02-15T07:07:32;101608.72;;;0.43;100.00
60345;BME280;46188;52.324;8.032;2023-02-15T07:09:57;101617.06;;;0.50;100.00
60345;BME280;46188;52.324;8.032;2023-02-15T07:12:23;101610.16;;;0.51;100.00
60345;BME280;46188;52.324;8.032;2023-02-15T07:15:08;101611.09;;;0.51;100.00
60345;BME280;46188;52.324;8.032;2023-02-15T07:17:35;101612.44;;;0.46;100.00
60345;BME280;46188;52.324;8.032;2023-02-15T07:20:00;101616.88;;;0.35;100.00
60345;BME280;46188;52.324;8.032;2023-02-15T07:22:26;101613.97;;;0.31;100.00
60345;BME280;46188;52.324;8.032;2023-02-15T07:24:53;101610.47;;;0.30;100.00
60345;BME280;46188;52.324;8.032;2023-02-15T07:27:20;101605.72;;;0.36;100.00
60345;BME280;46188;52.324;8.032;2023-02-15T07:29:46;101613.28;;;0.33;100.00
60345;BME280;46188;52.324;8.032;2023-02-15T07:32:11;101613.28;;;0.33;100.00
60345;BME280;46188;52.324;8.032;2023-02-15T07:34:37;101610.81;;;0.35;100.00
60345;BME280;46188;52.324;8.032;2023-02-15T07:37:02;101612.88;;;0.52;100.00
60345;BME280;46188;52.324;8.032;2023-02-15T07:39:28;101600.22;;;0.57;100.00
60345;BME280;46188;52.324;8.032;2023-02-15T07:41:53;101596.41;;;0.52;100.00
60345;BME280;46188;52.324;8.032;2023-02-15T07:44:18;101593.72;;;0.50;100.00
60345;BME280;46188;52.324;8.032;2023-02-15T07:46:44;101589.75;;;0.55;100.00
60345;BME280;46188;52.324;8.032;2023-02-15T07:49:09;101591.78;;;0.48;100.00
60345;BME280;46188;52.324;8.032;2023-02-15T07:51:35;101591.59;;;0.45;100.00
60345;BME280;46188;52.324;8.032;2023-02-15T07:54:00;101581.06;;;0.55;100.00
60345;BME280;46188;52.324;8.032;2023-02-15T07:56:25;101579.19;;;0.66;100.00
60345;BME280;46188;52.324;8.032;2023-02-15T07:58:51;101579.94;;;0.77;100.00
60345;BME280;46188;52.324;8.032;2023-02-15T08:01:28;101592.00;;;1.01;100.00
60345;BME280;46188;52.324;8.032;2023-02-15T08:03:54;101580.81;;;1.16;100.00
60345;BME280;46188;52.324;8.032;2023-02-15T08:06:21;101576.25;;;1.25;100.00
60345;BME280;46188;52.324;8.032;2023-02-15T08:08:47;101581.44;;;1.38;100.00
60345;BME280;46188;52.324;8.032;2023-02-15T08:11:17;101567.38;;;1.48;100.00
60345;BME280;46188;52.324;8.032;2023-02-15T08:19:07;101566.25;;;1.84;100.00
60345;BME280;46188;52.324;8.032;2023-02-15T08:21:33;101559.09;;;2.09;100.00
60345;BME280;46188;52.324;8.032;2023-02-15T08:23:59;101549.34;;;2.19;100.00
60345;BME280;46188;52.324;8.032;2023-02-15T08:26:26;101550.72;;;2.28;100.00
60345;BME280;46188;52.324;8.032;2023-02-15T08:28:52;101549.63;;;2.52;100.00
60345;BME280;46188;52.324;8.032;2023-02-15T08:31:18;101553.16;;;2.68;100.00
60345;BME280;46188;52.324;8.032;2023-02-15T08:33:45;101554.19;;;2.85;100.00
60345;BME280;46188;52.324;8.032;2023-02-15T08:36:16;101550.94;;;3.04;100.00
60345;BME280;46188;52.324;8.032;2023-02-15T08:38:42;101554.09;;;3.43;100.00
60345;BME280;46188;52.324;8.032;2023-02-15T08:43:46;101546.69;;;4.30;100.00
60345;BME280;46188;52.324;8.032;2023-02-15T08:46:13;101541.97;;;4.39;100.00
60345;BME280;46188;52.324;8.032;2023-02-15T08:48:39;101544.84;;;4.78;100.00
60345;BME280;46188;52.324;8.032;2023-02-15T08:51:06;101540.53;;;5.13;100.00
60345;BME280;46188;52.324;8.032;2023-02-15T08:53:32;101526.66;;;5.68;100.00
60345;BME280;46188;52.324;8.032;2023-02-15T08:55:58;101526.69;;;6.05;100.00
60345;BME280;46188;52.324;8.032;2023-02-15T08:58:24;101525.63;;;6.39;100.00
60345;BME280;46188;52.324;8.032;2023-02-15T09:00:50;101518.78;;;6.62;100.00
60345;BME280;46188;52.324;8.032;2023-02-15T09:03:15;101508.81;;;6.54;100.00
60345;BME280;46188;52.324;8.032;2023-02-15T09:05:41;101509.00;;;6.00;100.00
60345;BME280;46188;52.324;8.032;2023-02-15T09:08:06;101501.88;;;5.79;100.00
60345;BME280;46188;52.324;8.032;2023-02-15T09:10:32;101507.13;;;6.17;100.00
60345;BME280;46188;52.324;8.032;2023-02-15T09:12:57;101515.06;;;6.98;100.00
60345;BME280;46188;52.324;8.032;2023-02-15T09:15:23;101503.09;;;7.26;97.55
60345;BME280;46188;52.324;8.032;2023-02-15T09:17:48;101498.06;;;7.53;93.77
60345;BME280;46188;52.324;8.032;2023-02-15T09:20:13;101493.28;;;7.43;89.55
60345;BME280;46188;52.324;8.032;2023-02-15T09:22:39;101497.03;;;7.49;89.98
60345;BME280;46188;52.324;8.032;2023-02-15T09:25:04;101507.50;;;7.93;88.12
60345;BME280;46188;52.324;8.032;2023-02-15T09:27:30;101498.56;;;7.88;87.38
60345;BME280;46188;52.324;8.032;2023-02-15T09:29:55;101494.47;;;8.19;85.72
60345;BME280;46188;52.324;8.032;2023-02-15T09:32:21;101495.63;;;8.27;83.70
60345;BME280;46188;52.324;8.032;2023-02-15T09:34:47;101501.00;;;8.30;82.49
60345;BME280;46188;52.324;8.032;2023-02-15T09:37:13;101500.34;;;8.11;83.13
60345;BME280;46188;52.324;8.032;2023-02-15T09:39:41;101492.13;;;8.50;83.38
60345;BME280;46188;52.324;8.032;2023-02-15T10:06:14;101505.63;;;9.37;74.66
60345;BME280;46188;52.324;8.032;2023-02-15T10:28:05;101485.22;;;9.87;73.05
60345;BME280;46188;52.324;8.032;2023-02-15T10:30:54;101487.47;;;10.04;73.19
60345;BME280;46188;52.324;8.032;2023-02-15T10:33:38;101489.13;;;10.30;73.02
60345;BME280;46188;52.324;8.032;2023-02-15T10:36:18;101492.28;;;10.49;71.94
60345;BME280;46188;52.324;8.032;2023-02-15T10:38:58;101491.06;;;10.68;71.82
60345;BME280;46188;52.324;8.032;2023-02-15T10:41:47;101491.81;;;10.64;70.76
60345;BME280;46188;52.324;8.032;2023-02-15T10:47:22;101499.66;;;10.30;71.90
60345;BME280;46188;52.324;8.032;2023-02-15T11:06:28;101481.06;;;11.24;71.48
60345;BME280;46188;52.324;8.032;2023-02-15T11:09:01;101477.28;;;11.50;71.07
60345;BME280;46188;52.324;8.032;2023-02-15T11:11:37;101481.56;;;11.44;67.78
60345;BME280;46188;52.324;8.032;2023-02-15T11:14:15;101480.47;;;11.74;69.14
60345;BME280;46188;52.324;8.032;2023-02-15T11:16:45;101476.22;;;11.81;69.09
60345;BME280;46188;52.324;8.032;2023-02-15T11:22:09;101473.53;;;12.19;67.78
60345;BME280;46188;52.324;8.032;2023-02-15T11:24:45;101469.75;;;12.08;66.45
60345;BME280;46188;52.324;8.032;2023-02-15T11:27:22;101463.69;;;12.58;65.87
60345;BME280;46188;52.324;8.032;2023-02-15T11:30:15;101460.41;;;12.71;65.76
60345;BME280;46188;52.324;8.032;2023-02-15T11:32:48;101448.53;;;12.98;65.20
60345;BME280;46188;52.324;8.032;2023-02-15T11:35:48;101445.22;;;13.11;65.41
60345;BME280;46188;52.324;8.032;2023-02-15T11:38:23;101430.97;;;13.03;64.64
60345;BME280;46188;52.324;8.032;2023-02-15T11:41:01;101438.13;;;12.57;65.58
60345;BME280;46188;52.324;8.032;2023-02-15T11:43:43;101435.19;;;12.90;65.34
60345;BME280;46188;52.324;8.032;2023-02-15T11:46:13;101434.31;;;12.91;65.20
60345;BME280;46188;52.324;8.032;2023-02-15T11:48:40;101427.25;;;12.91;64.50
60345;BME280;46188;52.324;8.032;2023-02-15T11:51:11;101434.69;;;13.13;65.21
60345;BME280;46188;52.324;8.032;2023-02-15T11:53:38;101429.09;;;12.96;65.70
60345;BME280;46188;52.324;8.032;2023-02-15T11:56:04;101427.78;;;13.25;65.02
60345;BME280;46188;52.324;8.032;2023-02-15T12:01:22;101424.22;;;13.83;63.33
60345;BME280;46188;52.324;8.032;2023-02-15T12:03:51;101418.66;;;13.63;62.93
60345;BME280;46188;52.324;8.032;2023-02-15T12:06:29;101418.69;;;13.64;63.05
60345;BME280;46188;52.324;8.032;2023-02-15T12:11:44;101407.69;;;14.02;62.26
60345;BME280;46188;52.324;8.032;2023-02-15T12:14:11;101403.84;;;13.77;61.45
60345;BME280;46188;52.324;8.032;2023-02-15T12:16:43;101403.50;;;13.53;62.11
60345;BME280;46188;52.324;8.032;2023-02-15T12:19:39;101403.09;;;13.26;60.86
60345;BME280;46188;52.324;8.032;2023-02-15T12:22:06;101406.16;;;12.96;62.25
60345;BME280;46188;52.324;8.032;2023-02-15T12:24:47;101404.50;;;12.51;61.93
60345;BME280;46188;52.324;8.032;2023-02-15T12:27:40;101402.06;;;12.62;62.92
60345;BME280;46188;52.324;8.032;2023-02-15T12:30:20;101396.53;;;13.01;62.60
60345;BME280;46188;52.324;8.032;2023-02-15T12:32:59;101392.56;;;13.29;60.84
60345;BME280;46188;52.324;8.032;2023-02-15T12:35:33;101395.56;;;13.53;61.67
60345;BME280;46188;52.324;8.032;2023-02-15T12:38:03;101379.03;;;13.71;60.68
60345;BME280;46188;52.324;8.032;2023-02-15T12:40:31;101374.69;;;13.77;60.96
60345;BME280;46188;52.324;8.032;2023-02-15T12:42:57;101376.41;;;13.72;60.23
60345;BME280;46188;52.324;8.032;2023-02-15T12:45:29;101379.13;;;13.80;60.81
60345;BME280;46188;52.324;8.032;2023-02-15T12:50:34;101375.22;;;13.52;60.88
60345;BME280;46188;52.324;8.032;2023-02-15T12:55:55;101373.03;;;13.23;61.16
60345;BME280;46188;52.324;8.032;2023-02-15T12:58:22;101367.84;;;13.29;60.78
60345;BME280;46188;52.324;8.032;2023-02-15T13:03:38;101353.88;;;13.39;60.12
60345;BME280;46188;52.324;8.032;2023-02-15T13:06:05;101353.97;;;13.47;59.30
60345;BME280;46188;52.324;8.032;2023-02-15T13:08:37;101357.88;;;13.11;59.44
60345;BME280;46188;52.324;8.032;2023-02-15T13:11:10;101354.38;;;13.15;59.64
60345;BME280;46188;52.324;8.032;2023-02-15T13:13:56;101354.50;;;13.21;59.10
60345;BME280;46188;52.324;8.032;2023-02-15T13:16:53;101347.44;;;13.22;59.33
60345;BME280;46188;52.324;8.032;2023-02-15T13:19:40;101357.59;;;12.94;60.04
60345;BME280;46188;52.324;8.032;2023-02-15T13:22:14;101352.16;;;12.83;59.79
60345;BME280;46188;52.324;8.032;2023-02-15T13:24:46;101349.94;;;13.11;59.95
60345;BME280;46188;52.324;8.032;2023-02-15T13:27:15;101344.00;;;13.29;59.95
60345;BME280;46188;52.324;8.032;2023-02-15T13:29:48;101334.47;;;13.40;59.76
60345;BME280;46188;52.324;8.032;2023-02-15T13:32:32;101340.06;;;13.63;59.70
60345;BME280;46188;52.324;8.032;2023-02-15T13:35:00;101335.66;;;13.62;59.53
60345;BME280;46188;52.324;8.032;2023-02-15T13:40:37;101327.94;;;13.84;58.05
60345;BME280;46188;52.324;8.032;2023-02-15T13:59:23;101309.75;;;13.40;60.32
60345;BME280;46188;52.324;8.032;2023-02-15T14:01:58;101301.88;;;13.44;60.49
60345;BME280;46188;52.324;8.032;2023-02-15T14:18:33;101297.31;;;13.33;60.73
60345;BME280;46188;52.324;8.032;2023-02-15T14:21:10;101303.56;;;13.39;60.53
60345;BME280;46188;52.324;8.032;2023-02-15T14:31:34;101298.31;;;12.81;61.75
60345;BME280;46188;52.324;8.032;2023-02-15T14:34:02;101292.72;;;12.61;61.69
60345;BME280;46188;52.324;8.032;2023-02-15T14:36:30;101286.09;;;12.33;62.05
60345;BME280;46188;52.324;8.032;2023-02-15T14:39:22;101290.78;;;12.51;62.43
60345;BME280;46188;52.324;8.032;2023-02-15T14:44:57;101282.41;;;12.78;62.00
60345;BME280;46188;52.324;8.032;2023-02-15T14:47:39;101275.69;;;12.44;62.53
60345;BME280;46188;52.324;8.032;2023-02-15T15:01:37;101254.63;;;11.98;63.82
60345;BME280;46188;52.324;8.032;2023-02-15T15:04:06;101264.34;;;11.99;64.07
60345;BME280;46188;52.324;8.032;2023-02-15T15:06:35;101267.59;;;11.86;63.89
60345;BME280;46188;52.324;8.032;2023-02-15T15:09:14;101267.88;;;11.54;64.70
60345;BME280;46188;52.324;8.032;2023-02-15T15:11:50;101263.69;;;11.63;64.95
60345;BME280;46188;52.324;8.032;2023-02-15T15:16:56;101258.22;;;11.54;65.37
60345;BME280;46188;52.324;8.032;2023-02-15T15:22:24;101269.47;;;11.45;66.01
60345;BME280;46188;52.324;8.032;2023-02-15T15:24:50;101270.09;;;11.32;65.94
60345;BME280;46188;52.324;8.032;2023-02-15T15:41:00;101263.34;;;11.05;68.44
60345;BME280;46188;52.324;8.032;2023-02-15T15:47:00;101271.44;;;10.74;70.04
60345;BME280;46188;52.324;8.032;2023-02-15T15:49:32;101271.25;;;10.64;70.61
60345;BME280;46188;52.324;8.032;2023-02-15T15:52:03;101264.13;;;10.62;70.99
60345;BME280;46188;52.324;8.032;2023-02-15T15:54:34;101262.34;;;10.59;71.30
60345;BME280;46188;52.324;8.032;2023-02-15T15:57:02;101256.13;;;10.57;71.08
60345;BME280;46188;52.324;8.032;2023-02-15T15:59:31;101251.59;;;10.51;71.42
60345;BME280;46188;52.324;8.032;2023-02-15T16:02:05;101258.22;;;10.36;72.10
60345;BME280;46188;52.324;8.032;2023-02-15T16:04:32;101250.03;;;10.25;73.13
60345;BME280;46188;52.324;8.032;2023-02-15T16:07:14;101259.47;;;10.15;73.96
60345;BME280;46188;52.324;8.032;2023-02-15T16:09:59;101257.28;;;9.98;74.61
60345;BME280;46188;52.324;8.032;2023-02-15T16:12:27;101247.47;;;9.93;75.01
60345;BME280;46188;52.324;8.032;2023-02-15T16:14:54;101247.44;;;9.91;75.50
60345;BME280;46188;52.324;8.032;2023-02-15T16:17:23;101243.72;;;9.83;75.65